sensor_id;sensor_type;location;lat;lon;timestamp;P1;durP1;ratioP1;P2;durP2;ratioP2
60368;SDS011;46208;44.634;10.492;2023-04-15T00:01:20;0.20;;;0.20;;
60368;SDS011;46208;44.634;10.492;2023-04-15T00:04:23;0.30;;;0.30;;
60368;SDS011;46208;44.634;10.492;2023-04-15T00:07:27;0.43;;;0.43;;
60368;SDS011;46208;44.634;10.492;2023-04-15T00:10:31;0.30;;;0.30;;
60368;SDS011;46208;44.634;10.492;2023-04-15T00:13:34;0.38;;;0.38;;
60368;SDS011;46208;44.634;10.492;2023-04-15T00:16:38;0.45;;;0.40;;
60368;SDS011;46208;44.634;10.492;2023-04-15T00:19:41;1.08;;;0.82;;
60368;SDS011;46208;44.634;10.492;2023-04-15T00:22:46;0.20;;;0.20;;
60368;SDS011;46208;44.634;10.492;2023-04-15T00:25:49;4.93;;;1.30;;
60368;SDS011;46208;44.634;10.492;2023-04-15T00:28:54;1.65;;;0.95;;
60368;SDS011;46208;44.634;10.492;2023-04-15T00:31:57;0.52;;;0.52;;
60368;SDS011;46208;44.634;10.492;2023-04-15T00:35:00;1.58;;;0.73;;
60368;SDS011;46208;44.634;10.492;2023-04-15T00:38:05;0.30;;;0.30;;
60368;SDS011;46208;44.634;10.492;2023-04-15T00:41:09;0.45;;;0.40;;
60368;SDS011;46208;44.634;10.492;2023-04-15T00:44:12;0.68;;;0.47;;
60368;SDS011;46208;44.634;10.492;2023-04-15T00:47:16;0.20;;;0.20;;
60368;SDS011;46208;44.634;10.492;2023-04-15T00:50:20;1.25;;;0.28;;
60368;SDS011;46208;44.634;10.492;2023-04-15T00:53:23;0.35;;;0.35;;
60368;SDS011;46208;44.634;10.492;2023-04-15T00:56:27;0.50;;;0.50;;
60368;SDS011;46208;44.634;10.492;2023-04-15T00:59:32;0.20;;;0.20;;
60368;SDS011;46208;44.634;10.492;2023-04-15T01:02:36;0.47;;;0.43;;
60368;SDS011;46208;44.634;10.492;2023-04-15T01:05:40;0.20;;;0.20;;
60368;SDS011;46208;44.634;10.492;2023-04-15T01:08:43;2.35;;;0.38;;
60368;SDS011;46208;44.634;10.492;2023-04-15T01:11:49;0.50;;;0.50;;
60368;SDS011;46208;44.634;10.492;2023-04-15T01:14:54;1.27;;;0.68;;
60368;SDS011;46208;44.634;10.492;2023-04-15T01:17:57;0.35;;;0.35;;
60368;SDS011;46208;44.634;10.492;2023-04-15T01:21:01;0.20;;;0.20;;
60368;SDS011;46208;44.634;10.492;2023-04-15T01:24:08;0.30;;;0.30;;
60368;SDS011;46208;44.634;10.492;2023-04-15T01:27:12;0.40;;;0.40;;
60368;SDS011;46208;44.634;10.492;2023-04-15T01:30:15;0.10;;;0.10;;
60368;SDS011;46208;44.634;10.492;2023-04-15T01:33:19;0.20;;;0.20;;
60368;SDS011;46208;44.634;10.492;2023-04-15T01:36:41;0.52;;;0.52;;
60368;SDS011;46208;44.634;10.492;2023-04-15T01:39:45;0.35;;;0.35;;
60368;SDS011;46208;44.634;10.492;2023-04-15T01:42:48;0.30;;;0.30;;
60368;SDS011;46208;44.634;10.492;2023-04-15T01:45:53;0.50;;;0.50;;
60368;SDS011;46208;44.634;10.492;2023-04-15T01:48:57;0.20;;;0.20;;
60368;SDS011;46208;44.634;10.492;2023-04-15T01:52:03;0.17;;;0.17;;
60368;SDS011;46208;44.634;10.492;2023-04-15T01:55:07;0.10;;;0.10;;
60368;SDS011;46208;44.634;10.492;2023-04-15T01:58:13;0.98;;;0.20;;
60368;SDS011;46208;44.634;10.492;2023-04-15T02:01:18;2.20;;;0.70;;
60368;SDS011;46208;44.634;10.492;2023-04-15T02:04:25;0.20;;;0.20;;
60368;SDS011;46208;44.634;10.492;2023-04-15T02:07:31;0.32;;;0.32;;
60368;SDS011;46208;44.634;10.492;2023-04-15T02:10:36;0.20;;;0.20;;
60368;SDS011;46208;44.634;10.492;2023-04-15T02:13:43;0.20;;;0.20;;
60368;SDS011;46208;44.634;10.492;2023-04-15T02:16:47;0.20;;;0.20;;
60368;SDS011;46208;44.634;10.492;2023-04-15T02:19:57;0.55;;;0.22;;
60368;SDS011;46208;44.634;10.492;2023-04-15T02:23:02;0.20;;;0.20;;
60368;SDS011;46208;44.634;10.492;2023-04-15T02:26:11;0.30;;;0.30;;
60368;SDS011;46208;44.634;10.492;2023-04-15T02:29:16;0.15;;;0.15;;
60368;SDS011;46208;44.634;10.492;2023-04-15T02:32:21;0.30;;;0.30;;
60368;SDS011;46208;44.634;10.492;2023-04-15T02:35:27;0.20;;;0.20;;
60368;SDS011;46208;44.634;10.492;2023-04-15T02:38:32;0.50;;;0.50;;
60368;SDS011;46208;44.634;10.492;2023-04-15T02:41:37;2.08;;;0.40;;
60368;SDS011;46208;44.634;10.492;2023-04-15T02:44:42;0.20;;;0.20;;
60368;SDS011;46208;44.634;10.492;2023-04-15T02:47:48;0.50;;;0.50;;
60368;SDS011;46208;44.634;10.492;2023-04-15T02:50:53;0.20;;;0.20;;
60368;SDS011;46208;44.634;10.492;2023-04-15T02:54:17;0.20;;;0.20;;
60368;SDS011;46208;44.634;10.492;2023-04-15T03:00:27;0.20;;;0.20;;
60368;SDS011;46208;44.634;10.492;2023-04-15T03:03:31;0.20;;;0.20;;
60368;SDS011;46208;44.634;10.492;2023-04-15T03:06:36;0.20;;;0.20;;
60368;SDS011;46208;44.634;10.492;2023-04-15T03:09:41;0.20;;;0.20;;
60368;SDS011;46208;44.634;10.492;2023-04-15T03:12:46;0.43;;;0.43;;
60368;SDS011;46208;44.634;10.492;2023-04-15T03:15:55;0.20;;;0.20;;
60368;SDS011;46208;44.634;10.492;2023-04-15T03:19:01;0.20;;;0.20;;
60368;SDS011;46208;44.634;10.492;2023-04-15T03:22:06;0.20;;;0.20;;
60368;SDS011;46208;44.634;10.492;2023-04-15T03:25:11;0.50;;;0.50;;
60368;SDS011;46208;44.634;10.492;2023-04-15T03:28:15;0.68;;;0.55;;
60368;SDS011;46208;44.634;10.492;2023-04-15T03:31:20;0.32;;;0.32;;
60368;SDS011;46208;44.634;10.492;2023-04-15T03:34:25;0.32;;;0.32;;
60368;SDS011;46208;44.634;10.492;2023-04-15T03:37:30;0.20;;;0.20;;
60368;SDS011;46208;44.634;10.492;2023-04-15T03:40:34;0.20;;;0.20;;
60368;SDS011;46208;44.634;10.492;2023-04-15T03:43:39;0.30;;;0.30;;
60368;SDS011;46208;44.634;10.492;2023-04-15T03:46:44;1.17;;;0.68;;
60368;SDS011;46208;44.634;10.492;2023-04-15T03:49:48;0.90;;;0.32;;
60368;SDS011;46208;44.634;10.492;2023-04-15T03:52:53;0.22;;;0.22;;
60368;SDS011;46208;44.634;10.492;2023-04-15T03:55:58;0.20;;;0.20;;
60368;SDS011;46208;44.634;10.492;2023-04-15T03:59:03;0.30;;;0.30;;
60368;SDS011;46208;44.634;10.492;2023-04-15T04:02:08;0.10;;;0.10;;
60368;SDS011;46208;44.634;10.492;2023-04-15T04:05:12;0.20;;;0.20;;
60368;SDS011;46208;44.634;10.492;2023-04-15T04:08:17;0.25;;;0.25;;
60368;SDS011;46208;44.634;10.492;2023-04-15T04:11:24;1.55;;;0.28;;
60368;SDS011;46208;44.634;10.492;2023-04-15T04:14:29;0.20;;;0.20;;
60368;SDS011;46208;44.634;10.492;2023-04-15T04:17:33;0.32;;;0.32;;
60368;SDS011;46208;44.634;10.492;2023-04-15T04:20:39;0.20;;;0.20;;
60368;SDS011;46208;44.634;10.492;2023-04-15T04:23:43;0.30;;;0.30;;
60368;SDS011;46208;44.634;10.492;2023-04-15T04:26:48;0.30;;;0.30;;
60368;SDS011;46208;44.634;10.492;2023-04-15T04:29:53;2.08;;;0.55;;
60368;SDS011;46208;44.634;10.492;2023-04-15T04:32:58;0.20;;;0.20;;
60368;SDS011;46208;44.634;10.492;2023-04-15T04:36:02;0.28;;;0.28;;
60368;SDS011;46208;44.634;10.492;2023-04-15T04:39:07;0.20;;;0.20;;
60368;SDS011;46208;44.634;10.492;2023-04-15T04:42:12;0.20;;;0.20;;
60368;SDS011;46208;44.634;10.492;2023-04-15T04:45:17;0.20;;;0.20;;
60368;SDS011;46208;44.634;10.492;2023-04-15T04:48:22;0.73;;;0.52;;
60368;SDS011;46208;44.634;10.492;2023-04-15T04:51:26;1.27;;;0.50;;
60368;SDS011;46208;44.634;10.492;2023-04-15T04:54:31;0.32;;;0.32;;
60368;SDS011;46208;44.634;10.492;2023-04-15T04:57:36;0.50;;;0.50;;
60368;SDS011;46208;44.634;10.492;2023-04-15T05:00:42;0.30;;;0.30;;
60368;SDS011;46208;44.634;10.492;2023-04-15T05:03:47;0.30;;;0.30;;
60368;SDS011;46208;44.634;10.492;2023-04-15T05:06:52;0.30;;;0.30;;
60368;SDS011;46208;44.634;10.492;2023-04-15T05:09:57;0.38;;;0.38;;
60368;SDS011;46208;44.634;10.492;2023-04-15T05:13:01;0.20;;;0.20;;
60368;SDS011;46208;44.634;10.492;2023-04-15T05:16:06;0.85;;;0.85;;
60368;SDS011;46208;44.634;10.492;2023-04-15T05:19:11;0.20;;;0.20;;
60368;SDS011;46208;44.634;10.492;2023-04-15T05:22:16;0.20;;;0.20;;
60368;SDS011;46208;44.634;10.492;2023-04-15T05:25:21;0.22;;;0.22;;
60368;SDS011;46208;44.634;10.492;2023-04-15T05:28:25;0.60;;;0.60;;
60368;SDS011;46208;44.634;10.492;2023-04-15T05:31:30;1.20;;;0.30;;
60368;SDS011;46208;44.634;10.492;2023-04-15T05:34:35;0.93;;;0.45;;
60368;SDS011;46208;44.634;10.492;2023-04-15T05:37:40;0.52;;;0.45;;
60368;SDS011;46208;44.634;10.492;2023-04-15T05:40:45;0.30;;;0.30;;
60368;SDS011;46208;44.634;10.492;2023-04-15T05:43:50;0.55;;;0.50;;
60368;SDS011;46208;44.634;10.492;2023-04-15T05:46:55;0.80;;;0.55;;
60368;SDS011;46208;44.634;10.492;2023-04-15T05:50:00;0.80;;;0.68;;
60368;SDS011;46208;44.634;10.492;2023-04-15T05:53:05;1.88;;;0.90;;
60368;SDS011;46208;44.634;10.492;2023-04-15T05:56:10;0.30;;;0.30;;
60368;SDS011;46208;44.634;10.492;2023-04-15T05:59:15;0.60;;;0.60;;
60368;SDS011;46208;44.634;10.492;2023-04-15T06:02:20;0.45;;;0.45;;
60368;SDS011;46208;44.634;10.492;2023-04-15T06:05:25;0.65;;;0.38;;
60368;SDS011;46208;44.634;10.492;2023-04-15T06:08:31;0.85;;;0.40;;
60368;SDS011;46208;44.634;10.492;2023-04-15T06:11:36;0.20;;;0.20;;
60368;SDS011;46208;44.634;10.492;2023-04-15T06:14:40;0.28;;;0.28;;
60368;SDS011;46208;44.634;10.492;2023-04-15T06:17:45;0.20;;;0.20;;
60368;SDS011;46208;44.634;10.492;2023-04-15T06:20:49;0.47;;;0.47;;
60368;SDS011;46208;44.634;10.492;2023-04-15T06:23:55;3.47;;;0.60;;
60368;SDS011;46208;44.634;10.492;2023-04-15T06:27:00;0.35;;;0.35;;
60368;SDS011;46208;44.634;10.492;2023-04-15T06:30:06;0.50;;;0.50;;
60368;SDS011;46208;44.634;10.492;2023-04-15T06:33:11;0.50;;;0.50;;
60368;SDS011;46208;44.634;10.492;2023-04-15T06:36:15;0.30;;;0.30;;
60368;SDS011;46208;44.634;10.492;2023-04-15T06:39:20;0.40;;;0.40;;
60368;SDS011;46208;44.634;10.492;2023-04-15T06:42:25;0.98;;;0.35;;
60368;SDS011;46208;44.634;10.492;2023-04-15T06:45:29;0.68;;;0.57;;
60368;SDS011;46208;44.634;10.492;2023-04-15T06:48:35;0.50;;;0.50;;
60368;SDS011;46208;44.634;10.492;2023-04-15T06:51:41;1.23;;;0.50;;
60368;SDS011;46208;44.634;10.492;2023-04-15T06:54:45;0.55;;;0.50;;
60368;SDS011;46208;44.634;10.492;2023-04-15T06:57:50;0.40;;;0.35;;
60368;SDS011;46208;44.634;10.492;2023-04-15T07:00:55;0.30;;;0.30;;
60368;SDS011;46208;44.634;10.492;2023-04-15T07:04:00;0.60;;;0.47;;
60368;SDS011;46208;44.634;10.492;2023-04-15T07:07:05;0.82;;;0.40;;
60368;SDS011;46208;44.634;10.492;2023-04-15T07:10:09;1.55;;;1.20;;
60368;SDS011;46208;44.634;10.492;2023-04-15T07:13:15;0.40;;;0.40;;
60368;SDS011;46208;44.634;10.492;2023-04-15T07:16:20;2.03;;;0.80;;
60368;SDS011;46208;44.634;10.492;2023-04-15T07:19:25;2.53;;;0.40;;
60368;SDS011;46208;44.634;10.492;2023-04-15T07:22:30;1.20;;;0.93;;
60368;SDS011;46208;44.634;10.492;2023-04-15T07:25:35;0.80;;;0.50;;
60368;SDS011;46208;44.634;10.492;2023-04-15T07:28:40;0.40;;;0.30;;
60368;SDS011;46208;44.634;10.492;2023-04-15T07:31:45;2.95;;;0.90;;
60368;SDS011;46208;44.634;10.492;2023-04-15T07:34:49;0.52;;;0.30;;
60368;SDS011;46208;44.634;10.492;2023-04-15T07:37:54;0.57;;;0.57;;
60368;SDS011;46208;44.634;10.492;2023-04-15T07:40:59;3.00;;;0.85;;
60368;SDS011;46208;44.634;10.492;2023-04-15T07:44:04;2.05;;;1.17;;
60368;SDS011;46208;44.634;10.492;2023-04-15T07:47:09;1.08;;;0.60;;
60368;SDS011;46208;44.634;10.492;2023-04-15T07:50:14;0.32;;;0.32;;
60368;SDS011;46208;44.634;10.492;2023-04-15T07:53:20;0.43;;;0.40;;
60368;SDS011;46208;44.634;10.492;2023-04-15T07:56:25;0.52;;;0.35;;
60368;SDS011;46208;44.634;10.492;2023-04-15T07:59:30;0.90;;;0.70;;
60368;SDS011;46208;44.634;10.492;2023-04-15T08:02:37;2.92;;;0.73;;
60368;SDS011;46208;44.634;10.492;2023-04-15T08:05:42;1.00;;;0.77;;
60368;SDS011;46208;44.634;10.492;2023-04-15T08:08:46;2.10;;;0.47;;
60368;SDS011;46208;44.634;10.492;2023-04-15T08:11:51;1.50;;;0.95;;
60368;SDS011;46208;44.634;10.492;2023-04-15T08:14:56;0.80;;;0.80;;
60368;SDS011;46208;44.634;10.492;2023-04-15T08:18:01;0.80;;;0.73;;
60368;SDS011;46208;44.634;10.492;2023-04-15T08:21:06;0.40;;;0.38;;
60368;SDS011;46208;44.634;10.492;2023-04-15T08:24:11;1.15;;;0.98;;
60368;SDS011;46208;44.634;10.492;2023-04-15T08:27:16;2.58;;;0.55;;
60368;SDS011;46208;44.634;10.492;2023-04-15T08:30:21;0.50;;;0.50;;
60368;SDS011;46208;44.634;10.492;2023-04-15T08:33:25;1.33;;;0.50;;
60368;SDS011;46208;44.634;10.492;2023-04-15T08:36:31;0.70;;;0.60;;
60368;SDS011;46208;44.634;10.492;2023-04-15T08:39:36;2.55;;;1.13;;
60368;SDS011;46208;44.634;10.492;2023-04-15T08:42:43;2.55;;;0.82;;
60368;SDS011;46208;44.634;10.492;2023-04-15T08:45:47;2.90;;;0.70;;
60368;SDS011;46208;44.634;10.492;2023-04-15T08:48:55;0.43;;;0.43;;
60368;SDS011;46208;44.634;10.492;2023-04-15T08:52:00;1.98;;;0.57;;
60368;SDS011;46208;44.634;10.492;2023-04-15T08:55:06;1.40;;;0.80;;
60368;SDS011;46208;44.634;10.492;2023-04-15T08:58:12;1.27;;;0.30;;
60368;SDS011;46208;44.634;10.492;2023-04-15T09:01:17;2.70;;;0.88;;
60368;SDS011;46208;44.634;10.492;2023-04-15T09:04:21;0.68;;;0.40;;
60368;SDS011;46208;44.634;10.492;2023-04-15T09:07:26;4.10;;;1.38;;
60368;SDS011;46208;44.634;10.492;2023-04-15T09:10:33;0.60;;;0.47;;
60368;SDS011;46208;44.634;10.492;2023-04-15T09:13:38;3.50;;;0.98;;
60368;SDS011;46208;44.634;10.492;2023-04-15T09:17:02;1.73;;;0.93;;
60368;SDS011;46208;44.634;10.492;2023-04-15T09:20:08;3.40;;;1.02;;
60368;SDS011;46208;44.634;10.492;2023-04-15T09:23:13;3.40;;;0.77;;
60368;SDS011;46208;44.634;10.492;2023-04-15T09:26:18;3.55;;;1.70;;
60368;SDS011;46208;44.634;10.492;2023-04-15T09:29:23;2.65;;;0.85;;
60368;SDS011;46208;44.634;10.492;2023-04-15T09:32:28;7.07;;;1.42;;
60368;SDS011;46208;44.634;10.492;2023-04-15T09:35:33;3.20;;;1.30;;
60368;SDS011;46208;44.634;10.492;2023-04-15T09:38:53;2.97;;;1.08;;
60368;SDS011;46208;44.634;10.492;2023-04-15T09:42:04;1.40;;;1.10;;
60368;SDS011;46208;44.634;10.492;2023-04-15T09:45:10;2.80;;;0.82;;
60368;SDS011;46208;44.634;10.492;2023-04-15T09:48:19;1.70;;;0.70;;
60368;SDS011;46208;44.634;10.492;2023-04-15T09:51:34;2.55;;;1.15;;
60368;SDS011;46208;44.634;10.492;2023-04-15T09:54:39;2.00;;;0.70;;
60368;SDS011;46208;44.634;10.492;2023-04-15T09:57:44;2.75;;;1.10;;
60368;SDS011;46208;44.634;10.492;2023-04-15T10:00:51;2.03;;;0.73;;
60368;SDS011;46208;44.634;10.492;2023-04-15T10:03:56;1.75;;;0.90;;
60368;SDS011;46208;44.634;10.492;2023-04-15T10:07:02;2.03;;;1.08;;
60368;SDS011;46208;44.634;10.492;2023-04-15T10:10:07;1.45;;;1.23;;
60368;SDS011;46208;44.634;10.492;2023-04-15T10:13:13;2.85;;;1.13;;
60368;SDS011;46208;44.634;10.492;2023-04-15T10:16:19;3.22;;;0.80;;
60368;SDS011;46208;44.634;10.492;2023-04-15T10:19:24;5.47;;;2.22;;
60368;SDS011;46208;44.634;10.492;2023-04-15T10:22:31;1.83;;;0.63;;
60368;SDS011;46208;44.634;10.492;2023-04-15T10:25:36;1.58;;;1.08;;
60368;SDS011;46208;44.634;10.492;2023-04-15T10:28:41;3.78;;;1.60;;
60368;SDS011;46208;44.634;10.492;2023-04-15T10:31:46;1.70;;;0.65;;
60368;SDS011;46208;44.634;10.492;2023-04-15T10:34:51;1.33;;;0.82;;
60368;SDS011;46208;44.634;10.492;2023-04-15T10:37:57;1.50;;;1.15;;
60368;SDS011;46208;44.634;10.492;2023-04-15T10:41:12;4.60;;;1.50;;
60368;SDS011;46208;44.634;10.492;2023-04-15T10:44:18;1.08;;;0.85;;
60368;SDS011;46208;44.634;10.492;2023-04-15T10:47:22;3.88;;;0.90;;
60368;SDS011;46208;44.634;10.492;2023-04-15T10:50:29;2.22;;;1.25;;
60368;SDS011;46208;44.634;10.492;2023-04-15T10:53:33;2.60;;;1.13;;
60368;SDS011;46208;44.634;10.492;2023-04-15T10:56:41;1.90;;;1.13;;
60368;SDS011;46208;44.634;10.492;2023-04-15T11:00:09;3.72;;;1.20;;
60368;SDS011;46208;44.634;10.492;2023-04-15T11:03:14;1.33;;;1.15;;
60368;SDS011;46208;44.634;10.492;2023-04-15T11:06:19;1.58;;;0.95;;
60368;SDS011;46208;44.634;10.492;2023-04-15T11:09:30;1.20;;;1.10;;
60368;SDS011;46208;44.634;10.492;2023-04-15T11:12:39;5.55;;;1.42;;
60368;SDS011;46208;44.634;10.492;2023-04-15T11:15:44;2.63;;;1.10;;
60368;SDS011;46208;44.634;10.492;2023-04-15T11:18:53;1.30;;;0.93;;
60368;SDS011;46208;44.634;10.492;2023-04-15T11:22:05;2.33;;;0.95;;
60368;SDS011;46208;44.634;10.492;2023-04-15T11:25:09;2.05;;;1.13;;
60368;SDS011;46208;44.634;10.492;2023-04-15T11:28:14;2.80;;;1.45;;
60368;SDS011;46208;44.634;10.492;2023-04-15T11:31:19;0.90;;;0.88;;
60368;SDS011;46208;44.634;10.492;2023-04-15T11:34:23;0.90;;;0.88;;
60368;SDS011;46208;44.634;10.492;2023-04-15T11:37:28;4.63;;;1.02;;
60368;SDS011;46208;44.634;10.492;2023-04-15T11:40:33;1.95;;;1.25;;
60368;SDS011;46208;44.634;10.492;2023-04-15T11:43:40;4.25;;;1.40;;
60368;SDS011;46208;44.634;10.492;2023-04-15T11:46:44;1.58;;;1.08;;
60368;SDS011;46208;44.634;10.492;2023-04-15T11:49:49;6.65;;;1.30;;
60368;SDS011;46208;44.634;10.492;2023-04-15T11:52:56;2.38;;;1.23;;
60368;SDS011;46208;44.634;10.492;2023-04-15T11:56:00;1.65;;;1.20;;
60368;SDS011;46208;44.634;10.492;2023-04-15T11:59:04;1.58;;;1.15;;
60368;SDS011;46208;44.634;10.492;2023-04-15T12:02:10;1.73;;;1.10;;
60368;SDS011;46208;44.634;10.492;2023-04-15T12:05:14;4.57;;;0.70;;
60368;SDS011;46208;44.634;10.492;2023-04-15T12:08:18;1.33;;;1.00;;
60368;SDS011;46208;44.634;10.492;2023-04-15T12:14:31;4.13;;;1.20;;
60368;SDS011;46208;44.634;10.492;2023-04-15T12:17:35;2.08;;;1.33;;
60368;SDS011;46208;44.634;10.492;2023-04-15T12:20:44;1.10;;;1.00;;
60368;SDS011;46208;44.634;10.492;2023-04-15T12:23:48;2.05;;;1.55;;
60368;SDS011;46208;44.634;10.492;2023-04-15T12:26:53;1.27;;;0.93;;
60368;SDS011;46208;44.634;10.492;2023-04-15T12:30:03;1.73;;;1.13;;
60368;SDS011;46208;44.634;10.492;2023-04-15T12:33:07;0.88;;;0.85;;
60368;SDS011;46208;44.634;10.492;2023-04-15T12:36:10;1.42;;;0.98;;
60368;SDS011;46208;44.634;10.492;2023-04-15T12:39:13;3.58;;;1.08;;
60368;SDS011;46208;44.634;10.492;2023-04-15T12:42:16;3.15;;;1.60;;
60368;SDS011;46208;44.634;10.492;2023-04-15T12:45:20;1.67;;;1.17;;
60368;SDS011;46208;44.634;10.492;2023-04-15T12:48:24;1.77;;;1.20;;
60368;SDS011;46208;44.634;10.492;2023-04-15T12:51:27;1.88;;;1.38;;
60368;SDS011;46208;44.634;10.492;2023-04-15T12:54:31;3.28;;;1.60;;
60368;SDS011;46208;44.634;10.492;2023-04-15T12:57:34;2.97;;;1.17;;
60368;SDS011;46208;44.634;10.492;2023-04-15T13:00:37;3.38;;;1.35;;
60368;SDS011;46208;44.634;10.492;2023-04-15T13:03:41;2.63;;;1.02;;
60368;SDS011;46208;44.634;10.492;2023-04-15T13:06:44;4.35;;;1.27;;
60368;SDS011;46208;44.634;10.492;2023-04-15T13:09:48;5.90;;;1.73;;
60368;SDS011;46208;44.634;10.492;2023-04-15T13:12:51;11.18;;;5.05;;
60368;SDS011;46208;44.634;10.492;2023-04-15T13:15:55;4.18;;;1.77;;
60368;SDS011;46208;44.634;10.492;2023-04-15T13:18:59;1.52;;;0.93;;
60368;SDS011;46208;44.634;10.492;2023-04-15T13:22:02;1.30;;;1.20;;
60368;SDS011;46208;44.634;10.492;2023-04-15T13:25:05;1.20;;;0.98;;
60368;SDS011;46208;44.634;10.492;2023-04-15T13:28:10;2.00;;;0.88;;
60368;SDS011;46208;44.634;10.492;2023-04-15T13:31:13;1.95;;;1.05;;
60368;SDS011;46208;44.634;10.492;2023-04-15T13:34:16;2.60;;;1.48;;
60368;SDS011;46208;44.634;10.492;2023-04-15T13:37:24;2.08;;;1.38;;
60368;SDS011;46208;44.634;10.492;2023-04-15T13:40:28;2.30;;;0.98;;
60368;SDS011;46208;44.634;10.492;2023-04-15T13:43:31;2.53;;;1.48;;
60368;SDS011;46208;44.634;10.492;2023-04-15T13:46:36;2.90;;;1.20;;
60368;SDS011;46208;44.634;10.492;2023-04-15T13:49:41;2.83;;;1.50;;
60368;SDS011;46208;44.634;10.492;2023-04-15T13:52:45;1.80;;;0.95;;
60368;SDS011;46208;44.634;10.492;2023-04-15T13:55:49;2.38;;;1.20;;
60368;SDS011;46208;44.634;10.492;2023-04-15T13:58:52;3.25;;;1.30;;
60368;SDS011;46208;44.634;10.492;2023-04-15T14:02:01;2.13;;;1.45;;
60368;SDS011;46208;44.634;10.492;2023-04-15T14:05:04;2.75;;;1.52;;
60368;SDS011;46208;44.634;10.492;2023-04-15T14:08:08;2.00;;;1.50;;
60368;SDS011;46208;44.634;10.492;2023-04-15T14:11:11;3.90;;;2.00;;
60368;SDS011;46208;44.634;10.492;2023-04-15T14:14:15;2.40;;;1.63;;
60368;SDS011;46208;44.634;10.492;2023-04-15T14:17:19;3.17;;;1.42;;
60368;SDS011;46208;44.634;10.492;2023-04-15T14:20:22;2.38;;;1.38;;
60368;SDS011;46208;44.634;10.492;2023-04-15T14:23:26;4.50;;;2.20;;
60368;SDS011;46208;44.634;10.492;2023-04-15T14:26:30;2.80;;;1.92;;
60368;SDS011;46208;44.634;10.492;2023-04-15T14:29:33;2.60;;;1.52;;
60368;SDS011;46208;44.634;10.492;2023-04-15T14:32:36;5.50;;;1.98;;
60368;SDS011;46208;44.634;10.492;2023-04-15T14:35:39;3.42;;;1.23;;
60368;SDS011;46208;44.634;10.492;2023-04-15T14:38:43;2.97;;;1.95;;
60368;SDS011;46208;44.634;10.492;2023-04-15T14:41:46;3.40;;;2.15;;
60368;SDS011;46208;44.634;10.492;2023-04-15T14:44:50;2.22;;;1.70;;
60368;SDS011;46208;44.634;10.492;2023-04-15T14:47:53;2.13;;;1.50;;
60368;SDS011;46208;44.634;10.492;2023-04-15T14:50:57;2.03;;;1.27;;
60368;SDS011;46208;44.634;10.492;2023-04-15T14:54:00;2.78;;;1.80;;
60368;SDS011;46208;44.634;10.492;2023-04-15T14:57:03;3.03;;;1.95;;
60368;SDS011;46208;44.634;10.492;2023-04-15T15:00:08;3.95;;;1.70;;
60368;SDS011;46208;44.634;10.492;2023-04-15T15:03:12;4.35;;;1.70;;
60368;SDS011;46208;44.634;10.492;2023-04-15T15:06:16;3.65;;;1.73;;
60368;SDS011;46208;44.634;10.492;2023-04-15T15:09:19;3.95;;;1.52;;
60368;SDS011;46208;44.634;10.492;2023-04-15T15:12:25;3.75;;;1.20;;
60368;SDS011;46208;44.634;10.492;2023-04-15T15:15:28;2.47;;;1.50;;
60368;SDS011;46208;44.634;10.492;2023-04-15T15:18:32;3.55;;;1.63;;
60368;SDS011;46208;44.634;10.492;2023-04-15T15:21:35;1.83;;;1.30;;
60368;SDS011;46208;44.634;10.492;2023-04-15T15:24:40;1.45;;;1.35;;
60368;SDS011;46208;44.634;10.492;2023-04-15T15:27:43;1.70;;;1.15;;
60368;SDS011;46208;44.634;10.492;2023-04-15T15:30:47;2.20;;;1.15;;
60368;SDS011;46208;44.634;10.492;2023-04-15T15:33:50;2.42;;;1.42;;
60368;SDS011;46208;44.634;10.492;2023-04-15T15:36:54;3.33;;;1.70;;
60368;SDS011;46208;44.634;10.492;2023-04-15T15:39:59;1.42;;;1.23;;
60368;SDS011;46208;44.634;10.492;2023-04-15T15:43:03;1.17;;;1.08;;
60368;SDS011;46208;44.634;10.492;2023-04-15T15:46:06;1.35;;;1.08;;
60368;SDS011;46208;44.634;10.492;2023-04-15T15:49:09;3.78;;;1.42;;
60368;SDS011;46208;44.634;10.492;2023-04-15T15:52:13;1.23;;;1.13;;
60368;SDS011;46208;44.634;10.492;2023-04-15T15:55:16;2.33;;;1.80;;
60368;SDS011;46208;44.634;10.492;2023-04-15T15:58:20;3.20;;;1.38;;
60368;SDS011;46208;44.634;10.492;2023-04-15T16:01:23;5.05;;;1.60;;
60368;SDS011;46208;44.634;10.492;2023-04-15T16:04:26;2.95;;;1.40;;
60368;SDS011;46208;44.634;10.492;2023-04-15T16:07:29;1.70;;;1.15;;
60368;SDS011;46208;44.634;10.492;2023-04-15T16:10:32;2.65;;;1.00;;
60368;SDS011;46208;44.634;10.492;2023-04-15T16:13:36;1.08;;;0.95;;
60368;SDS011;46208;44.634;10.492;2023-04-15T16:16:39;3.42;;;1.33;;
60368;SDS011;46208;44.634;10.492;2023-04-15T16:19:43;1.02;;;0.90;;
60368;SDS011;46208;44.634;10.492;2023-04-15T16:22:46;2.15;;;1.30;;
60368;SDS011;46208;44.634;10.492;2023-04-15T16:25:49;2.08;;;1.40;;
60368;SDS011;46208;44.634;10.492;2023-04-15T16:28:53;1.60;;;1.10;;
60368;SDS011;46208;44.634;10.492;2023-04-15T16:31:56;2.03;;;1.58;;
60368;SDS011;46208;44.634;10.492;2023-04-15T16:34:59;2.30;;;1.80;;
60368;SDS011;46208;44.634;10.492;2023-04-15T16:38:03;1.95;;;1.23;;
60368;SDS011;46208;44.634;10.492;2023-04-15T16:41:06;2.85;;;1.30;;
60368;SDS011;46208;44.634;10.492;2023-04-15T16:44:09;2.15;;;1.30;;
60368;SDS011;46208;44.634;10.492;2023-04-15T16:47:13;2.42;;;1.40;;
60368;SDS011;46208;44.634;10.492;2023-04-15T16:50:16;1.52;;;1.42;;
60368;SDS011;46208;44.634;10.492;2023-04-15T16:53:19;1.90;;;1.08;;
60368;SDS011;46208;44.634;10.492;2023-04-15T16:56:23;1.38;;;1.27;;
60368;SDS011;46208;44.634;10.492;2023-04-15T16:59:27;2.40;;;1.30;;
60368;SDS011;46208;44.634;10.492;2023-04-15T17:02:31;2.95;;;1.55;;
60368;SDS011;46208;44.634;10.492;2023-04-15T17:05:34;2.70;;;1.40;;
60368;SDS011;46208;44.634;10.492;2023-04-15T17:08:37;1.17;;;1.10;;
60368;SDS011;46208;44.634;10.492;2023-04-15T17:11:40;4.40;;;1.67;;
60368;SDS011;46208;44.634;10.492;2023-04-15T17:14:45;2.88;;;0.98;;
60368;SDS011;46208;44.634;10.492;2023-04-15T17:17:48;1.42;;;1.33;;
60368;SDS011;46208;44.634;10.492;2023-04-15T17:20:52;1.45;;;1.20;;
60368;SDS011;46208;44.634;10.492;2023-04-15T17:23:57;1.65;;;1.00;;
60368;SDS011;46208;44.634;10.492;2023-04-15T17:27:00;1.65;;;1.30;;
60368;SDS011;46208;44.634;10.492;2023-04-15T17:30:07;3.03;;;1.48;;
60368;SDS011;46208;44.634;10.492;2023-04-15T17:33:31;1.00;;;0.85;;
60368;SDS011;46208;44.634;10.492;2023-04-15T17:36:54;1.13;;;0.75;;
60368;SDS011;46208;44.634;10.492;2023-04-15T17:40:17;1.20;;;1.10;;
60368;SDS011;46208;44.634;10.492;2023-04-15T17:43:40;0.80;;;0.80;;
60368;SDS011;46208;44.634;10.492;2023-04-15T17:47:03;0.80;;;0.80;;
60368;SDS011;46208;44.634;10.492;2023-04-15T17:50:27;1.95;;;0.82;;
60368;SDS011;46208;44.634;10.492;2023-04-15T17:53:50;1.83;;;0.98;;
60368;SDS011;46208;44.634;10.492;2023-04-15T17:57:13;0.70;;;0.70;;
60368;SDS011;46208;44.634;10.492;2023-04-15T18:00:36;0.70;;;0.60;;
60368;SDS011;46208;44.634;10.492;2023-04-15T18:03:59;2.75;;;1.40;;
60368;SDS011;46208;44.634;10.492;2023-04-15T18:07:23;2.13;;;1.05;;
60368;SDS011;46208;44.634;10.492;2023-04-15T18:10:46;2.30;;;1.08;;
60368;SDS011;46208;44.634;10.492;2023-04-15T18:14:09;1.48;;;1.38;;
60368;SDS011;46208;44.634;10.492;2023-04-15T18:17:32;6.20;;;1.42;;
60368;SDS011;46208;44.634;10.492;2023-04-15T18:20:51;1.70;;;1.15;;
60368;SDS011;46208;44.634;10.492;2023-04-15T18:23:54;2.15;;;1.83;;
60368;SDS011;46208;44.634;10.492;2023-04-15T18:26:57;4.97;;;2.63;;